Aeroporto :
LOGIN :

Iscrizione | Disclaimer

   EN    FR    IT 

 










Sommario :    VFR   VFR Marginale   IFR   IFR Intensivo   IFR Molto Intensivo
Visibilità : 
Base nubi : 
>= 8 km
>= 3000ft
5 / 8 km
1000 / 3000 ft
1500m / 5 km
500 / 1000 ft
800 / 1500m
200 / 500 ft
< 800m
< 200 ft
Simboli :   Temporali  Nebbia  Neve Forte  Precipitazioni Forti  Vento > 20 kt
SIGMETs :   Varie  Temporali  Ghiacco  Turbolenza  Onda orograficha  Ceneri Vulcaniche






- Altitudine del aeroporto : 45 ft
- Codice IATA : CEG


EGNR - Hawarden Chester

ULTIMO METAR :
  • 081220Z VRB02KT CAVOK 17/06 Q1025

METARs OBSOLETI :
  • 081150Z 34006KT 290V020 CAVOK 17/07 Q1025
  • 081120Z 31005KT 240V350 CAVOK 17/07 Q1025
  • 081050Z VRB02KT CAVOK 18/07 Q1026
  • 081020Z VRB02KT CAVOK 17/05 Q1026
  • 080950Z VRB03KT CAVOK 16/07 Q1026

TAF TAF EGNR
Valido dal 08 a 12 ore il 08 a 21 ore UTC


081105Z 0812/0821 15005KT 9999 FEW040
BECMG 0812/0815 33010KT



MetMap, La meteo Aeronautica in un colpo d'occhio ! - Copyright ORBIFLY Dicembre 2007 - Disclaimer

ORBIFLY MET'MAP TEAM :

Programmazione e sviluppo : Alexandra Zaïnal
Concezione : Baudouin d'Aumeries
Aiuto per la programmazione : Marc-Olivier Méhu
Supporto tecnico e logistico : Manuel Goepfert
Aiuto per la traduzione : Arnaldo La Scala

Contatto : metmap@orbifly.com




FONTI E CREDITI :

   NOAA